sensor_id;sensor_type;location;lat;lon;timestamp;P1;durP1;ratioP1;P2;durP2;ratioP2
29200;SDS011;16244;51.956;12.980;2023-05-10T00:01:49;4.30;;;4.00;;
29200;SDS011;16244;51.956;12.980;2023-05-10T00:04:16;3.50;;;3.40;;
29200;SDS011;16244;51.956;12.980;2023-05-10T00:06:44;3.30;;;3.20;;
29200;SDS011;16244;51.956;12.980;2023-05-10T00:09:11;4.07;;;3.87;;
29200;SDS011;16244;51.956;12.980;2023-05-10T00:11:39;4.53;;;4.20;;
29200;SDS011;16244;51.956;12.980;2023-05-10T00:14:08;5.10;;;3.93;;
29200;SDS011;16244;51.956;12.980;2023-05-10T00:16:35;3.77;;;3.60;;
29200;SDS011;16244;51.956;12.980;2023-05-10T00:19:03;4.40;;;4.10;;
29200;SDS011;16244;51.956;12.980;2023-05-10T00:21:31;4.60;;;4.30;;
29200;SDS011;16244;51.956;12.980;2023-05-10T00:23:59;4.13;;;3.43;;
29200;SDS011;16244;51.956;12.980;2023-05-10T00:26:27;4.43;;;4.13;;
29200;SDS011;16244;51.956;12.980;2023-05-10T00:28:55;4.60;;;3.77;;
29200;SDS011;16244;51.956;12.980;2023-05-10T00:31:24;4.23;;;3.90;;
29200;SDS011;16244;51.956;12.980;2023-05-10T00:33:52;8.30;;;4.10;;
29200;SDS011;16244;51.956;12.980;2023-05-10T00:36:19;4.97;;;4.67;;
29200;SDS011;16244;51.956;12.980;2023-05-10T00:38:47;5.73;;;4.47;;
29200;SDS011;16244;51.956;12.980;2023-05-10T00:41:14;6.63;;;4.30;;
29200;SDS011;16244;51.956;12.980;2023-05-10T00:43:42;5.00;;;4.70;;
29200;SDS011;16244;51.956;12.980;2023-05-10T00:46:10;4.40;;;4.03;;
29200;SDS011;16244;51.956;12.980;2023-05-10T00:48:39;5.80;;;4.57;;
29200;SDS011;16244;51.956;12.980;2023-05-10T00:51:07;4.30;;;4.10;;
29200;SDS011;16244;51.956;12.980;2023-05-10T00:53:34;4.80;;;4.60;;
29200;SDS011;16244;51.956;12.980;2023-05-10T00:56:02;5.37;;;5.07;;
29200;SDS011;16244;51.956;12.980;2023-05-10T00:58:35;4.93;;;4.63;;
29200;SDS011;16244;51.956;12.980;2023-05-10T01:01:07;8.13;;;4.70;;
29200;SDS011;16244;51.956;12.980;2023-05-10T01:03:35;4.70;;;4.37;;
29200;SDS011;16244;51.956;12.980;2023-05-10T01:06:05;4.93;;;4.70;;
29200;SDS011;16244;51.956;12.980;2023-05-10T01:08:32;4.87;;;4.63;;
29200;SDS011;16244;51.956;12.980;2023-05-10T01:11:00;4.30;;;3.93;;
29200;SDS011;16244;51.956;12.980;2023-05-10T01:13:30;41.30;;;5.30;;
29200;SDS011;16244;51.956;12.980;2023-05-10T01:16:00;5.50;;;4.93;;
29200;SDS011;16244;51.956;12.980;2023-05-10T01:18:29;4.50;;;4.30;;
29200;SDS011;16244;51.956;12.980;2023-05-10T01:21:02;5.00;;;4.70;;
29200;SDS011;16244;51.956;12.980;2023-05-10T01:23:49;5.17;;;4.80;;
29200;SDS011;16244;51.956;12.980;2023-05-10T01:29:44;4.90;;;4.70;;
29200;SDS011;16244;51.956;12.980;2023-05-10T01:32:30;4.43;;;4.23;;
29200;SDS011;16244;51.956;12.980;2023-05-10T01:35:03;5.10;;;4.70;;
29200;SDS011;16244;51.956;12.980;2023-05-10T01:37:37;4.87;;;4.60;;
29200;SDS011;16244;51.956;12.980;2023-05-10T01:40:12;5.17;;;4.87;;
29200;SDS011;16244;51.956;12.980;2023-05-10T01:42:46;5.53;;;5.00;;
29200;SDS011;16244;51.956;12.980;2023-05-10T01:45:18;5.73;;;4.67;;
29200;SDS011;16244;51.956;12.980;2023-05-10T01:47:55;4.90;;;4.80;;
29200;SDS011;16244;51.956;12.980;2023-05-10T01:50:29;5.53;;;4.70;;
29200;SDS011;16244;51.956;12.980;2023-05-10T01:53:00;5.50;;;5.20;;
29200;SDS011;16244;51.956;12.980;2023-05-10T01:55:30;5.53;;;5.13;;
29200;SDS011;16244;51.956;12.980;2023-05-10T01:58:02;4.90;;;4.70;;
29200;SDS011;16244;51.956;12.980;2023-05-10T02:00:34;7.70;;;4.93;;
29200;SDS011;16244;51.956;12.980;2023-05-10T02:03:05;5.40;;;5.10;;
29200;SDS011;16244;51.956;12.980;2023-05-10T02:05:35;5.10;;;4.87;;
29200;SDS011;16244;51.956;12.980;2023-05-10T02:08:05;5.40;;;4.90;;
29200;SDS011;16244;51.956;12.980;2023-05-10T02:10:33;6.40;;;4.90;;
29200;SDS011;16244;51.956;12.980;2023-05-10T02:13:02;4.90;;;4.70;;
29200;SDS011;16244;51.956;12.980;2023-05-10T02:15:32;6.73;;;5.50;;
29200;SDS011;16244;51.956;12.980;2023-05-10T02:18:00;5.40;;;4.90;;
29200;SDS011;16244;51.956;12.980;2023-05-10T02:20:32;5.10;;;5.00;;
29200;SDS011;16244;51.956;12.980;2023-05-10T02:23:01;5.60;;;5.37;;
29200;SDS011;16244;51.956;12.980;2023-05-10T02:25:31;8.87;;;5.10;;
29200;SDS011;16244;51.956;12.980;2023-05-10T02:28:00;5.00;;;4.73;;
29200;SDS011;16244;51.956;12.980;2023-05-10T02:30:29;5.17;;;4.97;;
29200;SDS011;16244;51.956;12.980;2023-05-10T02:32:59;5.83;;;5.30;;
29200;SDS011;16244;51.956;12.980;2023-05-10T02:35:27;5.07;;;4.80;;
29200;SDS011;16244;51.956;12.980;2023-05-10T02:37:57;5.50;;;5.10;;
29200;SDS011;16244;51.956;12.980;2023-05-10T02:40:26;10.63;;;5.07;;
29200;SDS011;16244;51.956;12.980;2023-05-10T02:42:55;4.63;;;4.43;;
29200;SDS011;16244;51.956;12.980;2023-05-10T02:45:27;5.43;;;5.13;;
29200;SDS011;16244;51.956;12.980;2023-05-10T02:47:57;5.70;;;5.40;;
29200;SDS011;16244;51.956;12.980;2023-05-10T02:50:26;5.77;;;5.37;;
29200;SDS011;16244;51.956;12.980;2023-05-10T02:52:56;5.43;;;4.93;;
29200;SDS011;16244;51.956;12.980;2023-05-10T02:55:31;6.43;;;5.87;;
29200;SDS011;16244;51.956;12.980;2023-05-10T02:58:02;6.63;;;6.20;;
29200;SDS011;16244;51.956;12.980;2023-05-10T03:00:30;6.80;;;6.20;;
29200;SDS011;16244;51.956;12.980;2023-05-10T03:02:58;6.33;;;5.93;;
29200;SDS011;16244;51.956;12.980;2023-05-10T03:05:26;6.87;;;6.47;;
29200;SDS011;16244;51.956;12.980;2023-05-10T03:07:53;6.53;;;5.73;;
29200;SDS011;16244;51.956;12.980;2023-05-10T03:10:26;5.87;;;5.47;;
29200;SDS011;16244;51.956;12.980;2023-05-10T03:13:00;5.77;;;5.47;;
29200;SDS011;16244;51.956;12.980;2023-05-10T03:15:37;6.50;;;5.90;;
29200;SDS011;16244;51.956;12.980;2023-05-10T03:18:10;5.57;;;5.07;;
29200;SDS011;16244;51.956;12.980;2023-05-10T03:20:42;7.90;;;6.60;;
29200;SDS011;16244;51.956;12.980;2023-05-10T03:23:12;5.43;;;5.23;;
29200;SDS011;16244;51.956;12.980;2023-05-10T03:25:49;8.73;;;5.60;;
29200;SDS011;16244;51.956;12.980;2023-05-10T03:28:17;5.50;;;5.07;;
29200;SDS011;16244;51.956;12.980;2023-05-10T03:30:45;6.53;;;6.03;;
29200;SDS011;16244;51.956;12.980;2023-05-10T03:33:14;7.50;;;6.77;;
29200;SDS011;16244;51.956;12.980;2023-05-10T03:35:41;6.00;;;5.70;;
29200;SDS011;16244;51.956;12.980;2023-05-10T03:38:11;5.70;;;5.30;;
29200;SDS011;16244;51.956;12.980;2023-05-10T03:40:39;5.87;;;5.43;;
29200;SDS011;16244;51.956;12.980;2023-05-10T03:43:08;6.23;;;5.73;;
29200;SDS011;16244;51.956;12.980;2023-05-10T03:45:35;5.43;;;5.13;;
29200;SDS011;16244;51.956;12.980;2023-05-10T03:48:03;5.83;;;5.30;;
29200;SDS011;16244;51.956;12.980;2023-05-10T03:50:31;4.77;;;4.57;;
29200;SDS011;16244;51.956;12.980;2023-05-10T03:52:58;5.83;;;4.93;;
29200;SDS011;16244;51.956;12.980;2023-05-10T03:55:26;4.73;;;4.50;;
29200;SDS011;16244;51.956;12.980;2023-05-10T03:57:54;5.40;;;5.00;;
29200;SDS011;16244;51.956;12.980;2023-05-10T04:00:23;5.23;;;4.60;;
29200;SDS011;16244;51.956;12.980;2023-05-10T04:02:50;5.10;;;4.90;;
29200;SDS011;16244;51.956;12.980;2023-05-10T04:05:18;5.53;;;5.23;;
29200;SDS011;16244;51.956;12.980;2023-05-10T04:07:45;3.90;;;3.80;;
29200;SDS011;16244;51.956;12.980;2023-05-10T04:10:15;5.50;;;5.33;;
29200;SDS011;16244;51.956;12.980;2023-05-10T04:12:43;4.33;;;4.13;;
29200;SDS011;16244;51.956;12.980;2023-05-10T04:15:11;5.53;;;4.90;;
29200;SDS011;16244;51.956;12.980;2023-05-10T04:17:40;5.33;;;3.87;;
29200;SDS011;16244;51.956;12.980;2023-05-10T04:20:08;5.43;;;4.13;;
29200;SDS011;16244;51.956;12.980;2023-05-10T04:22:36;4.50;;;4.20;;
29200;SDS011;16244;51.956;12.980;2023-05-10T04:25:04;9.83;;;4.40;;
29200;SDS011;16244;51.956;12.980;2023-05-10T04:27:32;3.93;;;3.83;;
29200;SDS011;16244;51.956;12.980;2023-05-10T04:30:00;4.90;;;4.70;;
29200;SDS011;16244;51.956;12.980;2023-05-10T04:32:28;3.73;;;3.40;;
29200;SDS011;16244;51.956;12.980;2023-05-10T04:34:58;4.10;;;3.80;;
29200;SDS011;16244;51.956;12.980;2023-05-10T04:37:26;3.67;;;3.57;;
29200;SDS011;16244;51.956;12.980;2023-05-10T04:39:54;4.33;;;3.87;;
29200;SDS011;16244;51.956;12.980;2023-05-10T04:42:21;3.47;;;3.37;;
29200;SDS011;16244;51.956;12.980;2023-05-10T04:44:49;4.20;;;3.80;;
29200;SDS011;16244;51.956;12.980;2023-05-10T04:47:18;4.30;;;3.90;;
29200;SDS011;16244;51.956;12.980;2023-05-10T04:49:45;3.97;;;3.87;;
29200;SDS011;16244;51.956;12.980;2023-05-10T04:52:14;4.13;;;3.83;;
29200;SDS011;16244;51.956;12.980;2023-05-10T04:54:43;4.30;;;4.10;;
29200;SDS011;16244;51.956;12.980;2023-05-10T04:57:11;4.27;;;4.17;;
29200;SDS011;16244;51.956;12.980;2023-05-10T04:59:39;4.63;;;3.33;;
29200;SDS011;16244;51.956;12.980;2023-05-10T05:02:07;3.50;;;3.40;;
29200;SDS011;16244;51.956;12.980;2023-05-10T05:04:34;3.10;;;3.00;;
29200;SDS011;16244;51.956;12.980;2023-05-10T05:07:02;3.40;;;3.33;;
29200;SDS011;16244;51.956;12.980;2023-05-10T05:09:31;3.03;;;2.80;;
29200;SDS011;16244;51.956;12.980;2023-05-10T05:11:59;3.83;;;3.57;;
29200;SDS011;16244;51.956;12.980;2023-05-10T05:14:26;3.53;;;3.43;;
29200;SDS011;16244;51.956;12.980;2023-05-10T05:16:54;2.90;;;2.80;;
29200;SDS011;16244;51.956;12.980;2023-05-10T05:19:21;2.93;;;2.83;;
29200;SDS011;16244;51.956;12.980;2023-05-10T05:21:49;3.00;;;3.00;;
29200;SDS011;16244;51.956;12.980;2023-05-10T05:24:17;3.50;;;3.40;;
29200;SDS011;16244;51.956;12.980;2023-05-10T05:26:46;2.40;;;2.40;;
29200;SDS011;16244;51.956;12.980;2023-05-10T05:29:14;3.23;;;2.93;;
29200;SDS011;16244;51.956;12.980;2023-05-10T05:31:41;3.10;;;2.97;;
29200;SDS011;16244;51.956;12.980;2023-05-10T05:34:09;2.53;;;2.43;;
29200;SDS011;16244;51.956;12.980;2023-05-10T05:36:37;2.57;;;2.47;;
29200;SDS011;16244;51.956;12.980;2023-05-10T05:39:05;1.70;;;1.70;;
29200;SDS011;16244;51.956;12.980;2023-05-10T05:41:33;2.47;;;2.37;;
29200;SDS011;16244;51.956;12.980;2023-05-10T05:44:02;2.50;;;2.33;;
29200;SDS011;16244;51.956;12.980;2023-05-10T05:46:30;2.37;;;2.17;;
29200;SDS011;16244;51.956;12.980;2023-05-10T05:48:58;2.00;;;2.00;;
29200;SDS011;16244;51.956;12.980;2023-05-10T05:51:25;2.30;;;2.20;;
29200;SDS011;16244;51.956;12.980;2023-05-10T05:53:54;1.97;;;1.87;;
29200;SDS011;16244;51.956;12.980;2023-05-10T05:56:23;2.20;;;2.10;;
29200;SDS011;16244;51.956;12.980;2023-05-10T05:58:51;1.63;;;1.63;;
29200;SDS011;16244;51.956;12.980;2023-05-10T06:01:20;2.10;;;1.17;;
29200;SDS011;16244;51.956;12.980;2023-05-10T06:03:47;6.00;;;1.33;;
29200;SDS011;16244;51.956;12.980;2023-05-10T06:06:15;1.63;;;1.63;;
29200;SDS011;16244;51.956;12.980;2023-05-10T06:08:42;1.30;;;1.30;;
29200;SDS011;16244;51.956;12.980;2023-05-10T06:11:10;2.70;;;2.70;;
29200;SDS011;16244;51.956;12.980;2023-05-10T06:13:37;3.63;;;1.57;;
29200;SDS011;16244;51.956;12.980;2023-05-10T06:16:05;2.03;;;1.33;;
29200;SDS011;16244;51.956;12.980;2023-05-10T06:18:34;1.83;;;1.53;;
29200;SDS011;16244;51.956;12.980;2023-05-10T06:21:02;6.23;;;1.70;;
29200;SDS011;16244;51.956;12.980;2023-05-10T06:23:30;1.93;;;1.80;;
29200;SDS011;16244;51.956;12.980;2023-05-10T06:25:58;1.53;;;1.53;;
29200;SDS011;16244;51.956;12.980;2023-05-10T06:28:25;1.57;;;1.10;;
29200;SDS011;16244;51.956;12.980;2023-05-10T06:30:53;1.63;;;1.40;;
29200;SDS011;16244;51.956;12.980;2023-05-10T06:33:20;4.73;;;1.50;;
29200;SDS011;16244;51.956;12.980;2023-05-10T06:35:49;1.20;;;1.20;;
29200;SDS011;16244;51.956;12.980;2023-05-10T06:38:18;1.63;;;1.53;;
29200;SDS011;16244;51.956;12.980;2023-05-10T06:40:46;2.30;;;1.47;;
29200;SDS011;16244;51.956;12.980;2023-05-10T06:43:13;1.10;;;1.10;;
29200;SDS011;16244;51.956;12.980;2023-05-10T06:45:41;2.10;;;1.57;;
29200;SDS011;16244;51.956;12.980;2023-05-10T06:48:09;1.80;;;1.33;;
29200;SDS011;16244;51.956;12.980;2023-05-10T06:50:37;1.50;;;1.40;;
29200;SDS011;16244;51.956;12.980;2023-05-10T06:53:06;1.50;;;1.40;;
29200;SDS011;16244;51.956;12.980;2023-05-10T06:55:33;1.20;;;1.20;;
29200;SDS011;16244;51.956;12.980;2023-05-10T06:58:01;2.50;;;1.90;;
29200;SDS011;16244;51.956;12.980;2023-05-10T07:00:29;2.23;;;1.77;;
29200;SDS011;16244;51.956;12.980;2023-05-10T07:02:56;4.10;;;1.30;;
29200;SDS011;16244;51.956;12.980;2023-05-10T07:05:24;3.57;;;1.57;;
29200;SDS011;16244;51.956;12.980;2023-05-10T07:07:53;3.37;;;2.13;;
29200;SDS011;16244;51.956;12.980;2023-05-10T07:10:22;1.93;;;1.70;;
29200;SDS011;16244;51.956;12.980;2023-05-10T07:12:49;7.93;;;1.30;;
29200;SDS011;16244;51.956;12.980;2023-05-10T07:15:17;2.73;;;1.80;;
29200;SDS011;16244;51.956;12.980;2023-05-10T07:17:45;5.50;;;1.40;;
29200;SDS011;16244;51.956;12.980;2023-05-10T07:20:13;3.23;;;2.07;;
29200;SDS011;16244;51.956;12.980;2023-05-10T07:22:40;1.40;;;1.40;;
29200;SDS011;16244;51.956;12.980;2023-05-10T07:25:08;1.60;;;1.60;;
29200;SDS011;16244;51.956;12.980;2023-05-10T07:27:38;2.07;;;1.20;;
29200;SDS011;16244;51.956;12.980;2023-05-10T07:30:08;6.13;;;1.50;;
29200;SDS011;16244;51.956;12.980;2023-05-10T07:32:37;1.50;;;1.50;;
29200;SDS011;16244;51.956;12.980;2023-05-10T07:35:05;1.30;;;1.30;;
29200;SDS011;16244;51.956;12.980;2023-05-10T07:37:34;1.63;;;1.17;;
29200;SDS011;16244;51.956;12.980;2023-05-10T07:40:01;1.10;;;1.10;;
29200;SDS011;16244;51.956;12.980;2023-05-10T07:42:31;1.17;;;1.17;;
29200;SDS011;16244;51.956;12.980;2023-05-10T07:44:59;2.40;;;1.33;;
29200;SDS011;16244;51.956;12.980;2023-05-10T07:47:27;1.87;;;1.30;;
29200;SDS011;16244;51.956;12.980;2023-05-10T07:49:55;4.40;;;3.37;;
29200;SDS011;16244;51.956;12.980;2023-05-10T07:52:22;2.80;;;1.40;;
29200;SDS011;16244;51.956;12.980;2023-05-10T07:54:50;2.20;;;1.27;;
29200;SDS011;16244;51.956;12.980;2023-05-10T07:57:17;8.63;;;1.30;;
29200;SDS011;16244;51.956;12.980;2023-05-10T07:59:45;1.70;;;1.70;;
29200;SDS011;16244;51.956;12.980;2023-05-10T08:02:15;3.03;;;1.50;;
29200;SDS011;16244;51.956;12.980;2023-05-10T08:04:42;1.00;;;1.00;;
29200;SDS011;16244;51.956;12.980;2023-05-10T08:07:12;2.67;;;1.23;;
29200;SDS011;16244;51.956;12.980;2023-05-10T08:09:40;2.03;;;1.57;;
29200;SDS011;16244;51.956;12.980;2023-05-10T08:12:07;1.40;;;1.40;;
29200;SDS011;16244;51.956;12.980;2023-05-10T08:14:35;1.97;;;1.87;;
29200;SDS011;16244;51.956;12.980;2023-05-10T08:17:03;1.00;;;1.00;;
29200;SDS011;16244;51.956;12.980;2023-05-10T08:19:32;1.70;;;1.50;;
29200;SDS011;16244;51.956;12.980;2023-05-10T08:21:59;2.30;;;1.90;;
29200;SDS011;16244;51.956;12.980;2023-05-10T08:24:27;1.30;;;1.30;;
29200;SDS011;16244;51.956;12.980;2023-05-10T08:26:55;1.40;;;1.27;;
29200;SDS011;16244;51.956;12.980;2023-05-10T08:29:22;1.60;;;1.47;;
29200;SDS011;16244;51.956;12.980;2023-05-10T08:31:49;1.50;;;1.40;;
29200;SDS011;16244;51.956;12.980;2023-05-10T08:34:17;1.53;;;1.43;;
29200;SDS011;16244;51.956;12.980;2023-05-10T08:36:46;2.90;;;2.70;;
29200;SDS011;16244;51.956;12.980;2023-05-10T08:39:13;1.70;;;1.67;;
29200;SDS011;16244;51.956;12.980;2023-05-10T08:41:41;4.97;;;2.13;;
29200;SDS011;16244;51.956;12.980;2023-05-10T08:44:12;1.33;;;1.33;;
29200;SDS011;16244;51.956;12.980;2023-05-10T08:46:41;1.63;;;1.53;;
29200;SDS011;16244;51.956;12.980;2023-05-10T08:49:10;6.70;;;1.83;;
29200;SDS011;16244;51.956;12.980;2023-05-10T08:51:40;1.70;;;1.60;;
29200;SDS011;16244;51.956;12.980;2023-05-10T08:54:15;3.03;;;1.40;;
29200;SDS011;16244;51.956;12.980;2023-05-10T08:56:43;2.37;;;1.33;;
29200;SDS011;16244;51.956;12.980;2023-05-10T08:59:10;1.70;;;1.60;;
29200;SDS011;16244;51.956;12.980;2023-05-10T09:01:39;2.00;;;1.90;;
29200;SDS011;16244;51.956;12.980;2023-05-10T09:04:08;2.50;;;1.30;;
29200;SDS011;16244;51.956;12.980;2023-05-10T09:06:35;1.73;;;1.63;;
29200;SDS011;16244;51.956;12.980;2023-05-10T09:09:03;1.48;;;1.48;;
29200;SDS011;16244;51.956;12.980;2023-05-10T09:11:32;2.00;;;1.83;;
29200;SDS011;16244;51.956;12.980;2023-05-10T09:14:00;1.60;;;1.60;;
29200;SDS011;16244;51.956;12.980;2023-05-10T09:16:28;5.40;;;3.43;;
29200;SDS011;16244;51.956;12.980;2023-05-10T09:18:56;3.25;;;2.00;;
29200;SDS011;16244;51.956;12.980;2023-05-10T09:21:24;8.25;;;2.78;;
29200;SDS011;16244;51.956;12.980;2023-05-10T09:23:52;6.82;;;1.98;;
29200;SDS011;16244;51.956;12.980;2023-05-10T09:26:21;1.88;;;1.77;;
29200;SDS011;16244;51.956;12.980;2023-05-10T09:28:51;17.95;;;2.58;;
29200;SDS011;16244;51.956;12.980;2023-05-10T09:31:20;3.65;;;2.55;;
29200;SDS011;16244;51.956;12.980;2023-05-10T09:33:48;1.80;;;1.75;;
29200;SDS011;16244;51.956;12.980;2023-05-10T09:36:16;2.70;;;1.55;;
29200;SDS011;16244;51.956;12.980;2023-05-10T09:38:47;2.38;;;1.58;;
29200;SDS011;16244;51.956;12.980;2023-05-10T09:41:15;3.42;;;1.65;;
29200;SDS011;16244;51.956;12.980;2023-05-10T09:43:44;3.83;;;2.08;;
29200;SDS011;16244;51.956;12.980;2023-05-10T09:46:13;10.50;;;3.38;;
29200;SDS011;16244;51.956;12.980;2023-05-10T09:48:41;4.03;;;2.22;;
29200;SDS011;16244;51.956;12.980;2023-05-10T09:51:10;1.88;;;1.70;;
29200;SDS011;16244;51.956;12.980;2023-05-10T09:53:38;1.85;;;1.63;;
29200;SDS011;16244;51.956;12.980;2023-05-10T09:56:05;1.98;;;1.88;;
29200;SDS011;16244;51.956;12.980;2023-05-10T09:58:34;8.18;;;2.60;;
29200;SDS011;16244;51.956;12.980;2023-05-10T10:01:04;2.50;;;1.85;;
29200;SDS011;16244;51.956;12.980;2023-05-10T10:03:42;2.30;;;1.98;;
29200;SDS011;16244;51.956;12.980;2023-05-10T10:06:10;2.45;;;1.77;;
29200;SDS011;16244;51.956;12.980;2023-05-10T10:08:37;2.17;;;2.08;;
29200;SDS011;16244;51.956;12.980;2023-05-10T10:11:05;7.35;;;1.95;;
29200;SDS011;16244;51.956;12.980;2023-05-10T10:13:33;1.75;;;1.63;;
29200;SDS011;16244;51.956;12.980;2023-05-10T10:16:01;2.25;;;1.80;;
29200;SDS011;16244;51.956;12.980;2023-05-10T10:18:29;2.53;;;2.40;;
29200;SDS011;16244;51.956;12.980;2023-05-10T10:20:59;2.28;;;2.17;;
29200;SDS011;16244;51.956;12.980;2023-05-10T10:23:28;6.55;;;1.98;;
29200;SDS011;16244;51.956;12.980;2023-05-10T10:25:56;2.30;;;2.05;;
29200;SDS011;16244;51.956;12.980;2023-05-10T10:28:26;2.78;;;1.63;;
29200;SDS011;16244;51.956;12.980;2023-05-10T10:31:15;1.63;;;1.52;;
29200;SDS011;16244;51.956;12.980;2023-05-10T10:33:55;2.40;;;2.22;;
29200;SDS011;16244;51.956;12.980;2023-05-10T10:36:28;1.90;;;1.80;;
29200;SDS011;16244;51.956;12.980;2023-05-10T10:38:57;5.20;;;2.22;;
29200;SDS011;16244;51.956;12.980;2023-05-10T10:41:31;1.85;;;1.85;;
29200;SDS011;16244;51.956;12.980;2023-05-10T10:47:00;2.08;;;1.60;;
29200;SDS011;16244;51.956;12.980;2023-05-10T10:49:31;2.45;;;2.45;;
29200;SDS011;16244;51.956;12.980;2023-05-10T10:55:01;2.92;;;2.00;;
29200;SDS011;16244;51.956;12.980;2023-05-10T10:57:31;2.80;;;2.20;;
29200;SDS011;16244;51.956;12.980;2023-05-10T11:00:21;2.60;;;2.35;;
29200;SDS011;16244;51.956;12.980;2023-05-10T11:02:53;3.08;;;2.20;;
29200;SDS011;16244;51.956;12.980;2023-05-10T11:05:34;2.25;;;2.13;;
29200;SDS011;16244;51.956;12.980;2023-05-10T11:08:08;2.40;;;2.30;;
29200;SDS011;16244;51.956;12.980;2023-05-10T11:11:06;1.90;;;1.90;;
29200;SDS011;16244;51.956;12.980;2023-05-10T11:13:38;2.38;;;1.65;;
29200;SDS011;16244;51.956;12.980;2023-05-10T11:16:11;3.38;;;3.17;;
29200;SDS011;16244;51.956;12.980;2023-05-10T11:18:56;2.67;;;2.47;;
29200;SDS011;16244;51.956;12.980;2023-05-10T11:21:27;4.10;;;3.17;;
29200;SDS011;16244;51.956;12.980;2023-05-10T11:23:58;2.05;;;1.95;;
29200;SDS011;16244;51.956;12.980;2023-05-10T11:26:30;2.35;;;2.15;;
29200;SDS011;16244;51.956;12.980;2023-05-10T11:28:58;2.40;;;2.30;;
29200;SDS011;16244;51.956;12.980;2023-05-10T11:31:27;1.95;;;1.95;;
29200;SDS011;16244;51.956;12.980;2023-05-10T11:33:56;2.88;;;2.58;;
29200;SDS011;16244;51.956;12.980;2023-05-10T11:36:25;1.88;;;1.80;;
29200;SDS011;16244;51.956;12.980;2023-05-10T11:38:55;2.97;;;2.78;;
29200;SDS011;16244;51.956;12.980;2023-05-10T11:41:24;4.10;;;2.25;;
29200;SDS011;16244;51.956;12.980;2023-05-10T11:43:54;2.00;;;1.90;;
29200;SDS011;16244;51.956;12.980;2023-05-10T11:46:22;2.63;;;2.45;;
29200;SDS011;16244;51.956;12.980;2023-05-10T11:48:51;4.22;;;2.55;;
29200;SDS011;16244;51.956;12.980;2023-05-10T11:51:20;2.17;;;1.92;;
29200;SDS011;16244;51.956;12.980;2023-05-10T11:53:49;2.28;;;2.28;;
29200;SDS011;16244;51.956;12.980;2023-05-10T11:56:18;2.17;;;2.05;;
29200;SDS011;16244;51.956;12.980;2023-05-10T11:58:51;2.67;;;2.47;;
29200;SDS011;16244;51.956;12.980;2023-05-10T12:01:20;8.00;;;2.53;;
29200;SDS011;16244;51.956;12.980;2023-05-10T12:03:48;2.83;;;2.70;;
29200;SDS011;16244;51.956;12.980;2023-05-10T12:06:18;2.33;;;2.33;;
29200;SDS011;16244;51.956;12.980;2023-05-10T12:08:46;2.33;;;2.08;;
29200;SDS011;16244;51.956;12.980;2023-05-10T12:11:19;2.40;;;2.40;;
29200;SDS011;16244;51.956;12.980;2023-05-10T12:13:51;4.40;;;2.83;;
29200;SDS011;16244;51.956;12.980;2023-05-10T12:16:19;5.75;;;3.22;;
29200;SDS011;16244;51.956;12.980;2023-05-10T12:18:48;3.05;;;2.40;;
29200;SDS011;16244;51.956;12.980;2023-05-10T12:21:16;2.97;;;2.88;;
29200;SDS011;16244;51.956;12.980;2023-05-10T12:23:45;2.63;;;2.58;;
29200;SDS011;16244;51.956;12.980;2023-05-10T12:26:15;2.83;;;2.35;;
29200;SDS011;16244;51.956;12.980;2023-05-10T12:28:43;2.90;;;2.70;;
29200;SDS011;16244;51.956;12.980;2023-05-10T12:31:11;2.40;;;2.30;;
29200;SDS011;16244;51.956;12.980;2023-05-10T12:33:39;4.57;;;3.08;;
29200;SDS011;16244;51.956;12.980;2023-05-10T12:36:09;2.55;;;2.35;;
29200;SDS011;16244;51.956;12.980;2023-05-10T12:38:38;3.33;;;3.13;;
29200;SDS011;16244;51.956;12.980;2023-05-10T12:41:09;7.78;;;7.18;;
29200;SDS011;16244;51.956;12.980;2023-05-10T12:43:37;4.10;;;3.83;;
29200;SDS011;16244;51.956;12.980;2023-05-10T12:46:08;8.53;;;3.83;;
29200;SDS011;16244;51.956;12.980;2023-05-10T12:48:37;4.00;;;3.70;;
29200;SDS011;16244;51.956;12.980;2023-05-10T12:51:06;3.33;;;3.13;;
29200;SDS011;16244;51.956;12.980;2023-05-10T12:53:35;4.65;;;3.78;;
29200;SDS011;16244;51.956;12.980;2023-05-10T12:56:03;4.10;;;3.30;;
29200;SDS011;16244;51.956;12.980;2023-05-10T12:58:31;5.50;;;3.70;;
29200;SDS011;16244;51.956;12.980;2023-05-10T13:00:59;3.63;;;3.53;;
29200;SDS011;16244;51.956;12.980;2023-05-10T13:03:28;4.00;;;3.60;;
29200;SDS011;16244;51.956;12.980;2023-05-10T13:05:56;4.60;;;3.27;;
29200;SDS011;16244;51.956;12.980;2023-05-10T13:08:24;3.80;;;3.60;;
29200;SDS011;16244;51.956;12.980;2023-05-10T13:10:51;4.20;;;4.03;;
29200;SDS011;16244;51.956;12.980;2023-05-10T13:13:19;4.00;;;3.37;;
29200;SDS011;16244;51.956;12.980;2023-05-10T13:15:46;3.93;;;3.63;;
29200;SDS011;16244;51.956;12.980;2023-05-10T13:18:14;3.80;;;3.50;;
29200;SDS011;16244;51.956;12.980;2023-05-10T13:20:43;4.57;;;4.27;;
29200;SDS011;16244;51.956;12.980;2023-05-10T13:23:11;4.07;;;3.87;;
29200;SDS011;16244;51.956;12.980;2023-05-10T13:25:39;4.87;;;3.90;;
29200;SDS011;16244;51.956;12.980;2023-05-10T13:28:07;3.90;;;3.60;;
29200;SDS011;16244;51.956;12.980;2023-05-10T13:30:34;5.30;;;4.87;;
29200;SDS011;16244;51.956;12.980;2023-05-10T13:33:03;6.40;;;4.70;;
29200;SDS011;16244;51.956;12.980;2023-05-10T13:35:36;4.97;;;4.63;;
29200;SDS011;16244;51.956;12.980;2023-05-10T13:38:05;5.57;;;5.07;;
29200;SDS011;16244;51.956;12.980;2023-05-10T13:40:35;4.40;;;3.93;;
29200;SDS011;16244;51.956;12.980;2023-05-10T13:43:04;6.03;;;5.23;;
29200;SDS011;16244;51.956;12.980;2023-05-10T13:45:32;3.67;;;3.53;;
29200;SDS011;16244;51.956;12.980;2023-05-10T13:47:59;7.23;;;6.00;;
29200;SDS011;16244;51.956;12.980;2023-05-10T13:50:27;5.37;;;4.30;;
29200;SDS011;16244;51.956;12.980;2023-05-10T13:52:55;3.80;;;3.47;;
29200;SDS011;16244;51.956;12.980;2023-05-10T13:55:23;3.97;;;3.87;;
29200;SDS011;16244;51.956;12.980;2023-05-10T13:57:52;4.17;;;3.90;;
29200;SDS011;16244;51.956;12.980;2023-05-10T14:00:21;9.90;;;8.10;;
29200;SDS011;16244;51.956;12.980;2023-05-10T14:02:50;32.17;;;9.40;;
29200;SDS011;16244;51.956;12.980;2023-05-10T14:05:19;17.63;;;7.43;;
29200;SDS011;16244;51.956;12.980;2023-05-10T14:07:50;3.50;;;3.40;;
29200;SDS011;16244;51.956;12.980;2023-05-10T14:10:20;9.73;;;4.03;;
29200;SDS011;16244;51.956;12.980;2023-05-10T14:12:52;3.10;;;3.00;;
29200;SDS011;16244;51.956;12.980;2023-05-10T14:15:19;4.10;;;3.70;;
29200;SDS011;16244;51.956;12.980;2023-05-10T14:17:48;6.33;;;5.00;;
29200;SDS011;16244;51.956;12.980;2023-05-10T14:20:17;2.73;;;2.73;;
29200;SDS011;16244;51.956;12.980;2023-05-10T14:22:45;5.40;;;3.40;;
29200;SDS011;16244;51.956;12.980;2023-05-10T14:25:13;3.00;;;2.90;;
29200;SDS011;16244;51.956;12.980;2023-05-10T14:27:41;3.87;;;3.77;;
29200;SDS011;16244;51.956;12.980;2023-05-10T14:30:11;8.00;;;2.43;;
29200;SDS011;16244;51.956;12.980;2023-05-10T14:32:39;2.23;;;2.23;;
29200;SDS011;16244;51.956;12.980;2023-05-10T14:35:07;3.03;;;2.80;;
29200;SDS011;16244;51.956;12.980;2023-05-10T14:37:35;2.57;;;2.47;;
29200;SDS011;16244;51.956;12.980;2023-05-10T14:40:02;1.83;;;1.83;;
29200;SDS011;16244;51.956;12.980;2023-05-10T14:42:32;2.10;;;1.80;;
29200;SDS011;16244;51.956;12.980;2023-05-10T14:44:59;1.70;;;1.70;;
29200;SDS011;16244;51.956;12.980;2023-05-10T14:47:28;1.73;;;1.73;;
29200;SDS011;16244;51.956;12.980;2023-05-10T14:49:56;2.33;;;1.80;;
29200;SDS011;16244;51.956;12.980;2023-05-10T14:52:24;3.57;;;2.13;;
29200;SDS011;16244;51.956;12.980;2023-05-10T14:54:52;1.83;;;1.83;;